sensor_id;sensor_type;location;lat;lon;timestamp;temperature;humidity
30371;DHT22;17164;48.590;11.410;2022-07-03T00:01:49;14.70;99.90
30371;DHT22;17164;48.590;11.410;2022-07-03T00:04:15;14.60;99.90
30371;DHT22;17164;48.590;11.410;2022-07-03T00:06:41;14.60;99.90
30371;DHT22;17164;48.590;11.410;2022-07-03T00:09:06;14.60;99.90
30371;DHT22;17164;48.590;11.410;2022-07-03T00:11:33;14.50;99.90
30371;DHT22;17164;48.590;11.410;2022-07-03T00:13:59;14.50;99.90
30371;DHT22;17164;48.590;11.410;2022-07-03T00:16:25;14.50;99.90
30371;DHT22;17164;48.590;11.410;2022-07-03T00:18:51;14.40;99.90
30371;DHT22;17164;48.590;11.410;2022-07-03T00:21:20;14.40;99.90
30371;DHT22;17164;48.590;11.410;2022-07-03T00:24:02;14.40;99.90
30371;DHT22;17164;48.590;11.410;2022-07-03T00:26:30;14.40;99.90
30371;DHT22;17164;48.590;11.410;2022-07-03T00:28:59;14.40;99.90
30371;DHT22;17164;48.590;11.410;2022-07-03T00:31:27;14.50;99.90
30371;DHT22;17164;48.590;11.410;2022-07-03T00:33:54;14.50;99.90
30371;DHT22;17164;48.590;11.410;2022-07-03T00:36:21;14.50;99.90
30371;DHT22;17164;48.590;11.410;2022-07-03T00:38:47;14.50;99.90
30371;DHT22;17164;48.590;11.410;2022-07-03T00:41:32;14.40;99.90
30371;DHT22;17164;48.590;11.410;2022-07-03T00:43:58;14.30;99.90
30371;DHT22;17164;48.590;11.410;2022-07-03T00:46:26;14.30;99.90
30371;DHT22;17164;48.590;11.410;2022-07-03T00:48:53;14.20;99.90
30371;DHT22;17164;48.590;11.410;2022-07-03T00:51:25;14.20;99.90
30371;DHT22;17164;48.590;11.410;2022-07-03T00:53:52;14.20;99.90
30371;DHT22;17164;48.590;11.410;2022-07-03T00:56:23;14.20;99.90
30371;DHT22;17164;48.590;11.410;2022-07-03T00:58:52;14.20;99.90
30371;DHT22;17164;48.590;11.410;2022-07-03T01:01:19;14.10;99.90
30371;DHT22;17164;48.590;11.410;2022-07-03T01:03:45;14.10;99.90
30371;DHT22;17164;48.590;11.410;2022-07-03T01:06:14;14.10;99.90
30371;DHT22;17164;48.590;11.410;2022-07-03T01:08:51;14.10;99.90
30371;DHT22;17164;48.590;11.410;2022-07-03T01:11:45;14.10;99.90
30371;DHT22;17164;48.590;11.410;2022-07-03T01:14:28;14.10;99.90
30371;DHT22;17164;48.590;11.410;2022-07-03T01:17:03;14.00;99.90
30371;DHT22;17164;48.590;11.410;2022-07-03T01:19:41;14.00;99.90
30371;DHT22;17164;48.590;11.410;2022-07-03T01:27:37;14.00;99.90
30371;DHT22;17164;48.590;11.410;2022-07-03T01:30:07;13.90;99.90
30371;DHT22;17164;48.590;11.410;2022-07-03T01:32:42;13.90;99.90
30371;DHT22;17164;48.590;11.410;2022-07-03T01:35:12;13.90;99.90
30371;DHT22;17164;48.590;11.410;2022-07-03T01:37:40;13.90;99.90
30371;DHT22;17164;48.590;11.410;2022-07-03T01:40:07;13.80;99.90
30371;DHT22;17164;48.590;11.410;2022-07-03T01:42:35;13.80;99.90
30371;DHT22;17164;48.590;11.410;2022-07-03T01:45:03;13.80;99.90
30371;DHT22;17164;48.590;11.410;2022-07-03T01:47:31;13.80;99.90
30371;DHT22;17164;48.590;11.410;2022-07-03T01:50:01;13.80;99.90
30371;DHT22;17164;48.590;11.410;2022-07-03T01:52:31;13.70;99.90
30371;DHT22;17164;48.590;11.410;2022-07-03T01:55:00;13.70;99.90
30371;DHT22;17164;48.590;11.410;2022-07-03T01:57:50;13.70;99.90
30371;DHT22;17164;48.590;11.410;2022-07-03T02:00:19;13.70;99.90
30371;DHT22;17164;48.590;11.410;2022-07-03T02:03:00;13.70;99.90
30371;DHT22;17164;48.590;11.410;2022-07-03T02:05:30;13.70;99.90
30371;DHT22;17164;48.590;11.410;2022-07-03T02:08:06;13.60;99.90
30371;DHT22;17164;48.590;11.410;2022-07-03T02:10:38;13.70;99.90
30371;DHT22;17164;48.590;11.410;2022-07-03T02:13:15;13.60;99.90
30371;DHT22;17164;48.590;11.410;2022-07-03T02:15:43;13.60;99.90
30371;DHT22;17164;48.590;11.410;2022-07-03T02:18:30;13.70;99.90
30371;DHT22;17164;48.590;11.410;2022-07-03T02:23:38;13.70;99.90
30371;DHT22;17164;48.590;11.410;2022-07-03T02:26:06;13.60;99.90
30371;DHT22;17164;48.590;11.410;2022-07-03T02:31:24;13.60;99.90
30371;DHT22;17164;48.590;11.410;2022-07-03T02:33:56;13.70;99.90
30371;DHT22;17164;48.590;11.410;2022-07-03T02:36:24;13.60;99.90
30371;DHT22;17164;48.590;11.410;2022-07-03T02:38:56;13.60;99.90
30371;DHT22;17164;48.590;11.410;2022-07-03T02:41:28;13.60;99.90
30371;DHT22;17164;48.590;11.410;2022-07-03T02:47:05;13.50;99.90
30371;DHT22;17164;48.590;11.410;2022-07-03T02:52:42;13.40;99.90
30371;DHT22;17164;48.590;11.410;2022-07-03T02:58:47;13.40;99.90
30371;DHT22;17164;48.590;11.410;2022-07-03T03:01:16;13.40;99.90
30371;DHT22;17164;48.590;11.410;2022-07-03T03:03:53;13.30;99.90
30371;DHT22;17164;48.590;11.410;2022-07-03T03:06:26;13.30;99.90
30371;DHT22;17164;48.590;11.410;2022-07-03T03:08:59;13.20;99.90
30371;DHT22;17164;48.590;11.410;2022-07-03T03:14:06;13.30;99.90
30371;DHT22;17164;48.590;11.410;2022-07-03T03:16:33;13.30;99.90
30371;DHT22;17164;48.590;11.410;2022-07-03T03:18:59;13.30;99.90
30371;DHT22;17164;48.590;11.410;2022-07-03T03:21:26;13.20;99.90
30371;DHT22;17164;48.590;11.410;2022-07-03T03:23:52;13.20;99.90
30371;DHT22;17164;48.590;11.410;2022-07-03T03:26:20;13.20;99.90
30371;DHT22;17164;48.590;11.410;2022-07-03T03:28:46;13.10;99.90
30371;DHT22;17164;48.590;11.410;2022-07-03T03:31:13;13.10;99.90
30371;DHT22;17164;48.590;11.410;2022-07-03T03:33:58;13.20;99.90
30371;DHT22;17164;48.590;11.410;2022-07-03T03:36:24;13.20;99.90
30371;DHT22;17164;48.590;11.410;2022-07-03T03:38:50;13.20;99.90
30371;DHT22;17164;48.590;11.410;2022-07-03T03:41:16;13.10;99.90
30371;DHT22;17164;48.590;11.410;2022-07-03T03:43:42;13.10;99.90
30371;DHT22;17164;48.590;11.410;2022-07-03T03:46:08;13.10;99.90
30371;DHT22;17164;48.590;11.410;2022-07-03T03:48:34;13.10;99.90
30371;DHT22;17164;48.590;11.410;2022-07-03T03:51:01;13.10;99.90
30371;DHT22;17164;48.590;11.410;2022-07-03T03:53:28;13.10;99.90
30371;DHT22;17164;48.590;11.410;2022-07-03T03:58:28;13.20;99.90
30371;DHT22;17164;48.590;11.410;2022-07-03T04:00:58;13.20;99.90
30371;DHT22;17164;48.590;11.410;2022-07-03T04:03:25;13.30;99.90
30371;DHT22;17164;48.590;11.410;2022-07-03T04:05:51;13.30;99.90
30371;DHT22;17164;48.590;11.410;2022-07-03T04:08:18;13.40;99.90
30371;DHT22;17164;48.590;11.410;2022-07-03T04:10:43;13.40;99.90
30371;DHT22;17164;48.590;11.410;2022-07-03T04:13:09;13.50;99.90
30371;DHT22;17164;48.590;11.410;2022-07-03T04:15:34;13.50;99.90
30371;DHT22;17164;48.590;11.410;2022-07-03T04:18:00;13.60;99.90
30371;DHT22;17164;48.590;11.410;2022-07-03T04:20:26;13.50;99.90
30371;DHT22;17164;48.590;11.410;2022-07-03T04:22:51;13.50;99.90
30371;DHT22;17164;48.590;11.410;2022-07-03T04:25:17;13.50;99.90
30371;DHT22;17164;48.590;11.410;2022-07-03T04:27:43;13.50;99.90
30371;DHT22;17164;48.590;11.410;2022-07-03T04:30:09;13.60;99.90
30371;DHT22;17164;48.590;11.410;2022-07-03T04:32:38;13.60;99.90
30371;DHT22;17164;48.590;11.410;2022-07-03T04:35:04;13.70;99.90
30371;DHT22;17164;48.590;11.410;2022-07-03T04:37:30;13.70;99.90
30371;DHT22;17164;48.590;11.410;2022-07-03T04:39:55;13.80;99.90
30371;DHT22;17164;48.590;11.410;2022-07-03T04:42:21;13.90;99.90
30371;DHT22;17164;48.590;11.410;2022-07-03T04:44:47;14.00;99.90
30371;DHT22;17164;48.590;11.410;2022-07-03T04:47:12;14.00;99.90
30371;DHT22;17164;48.590;11.410;2022-07-03T04:49:40;14.10;99.90
30371;DHT22;17164;48.590;11.410;2022-07-03T04:52:06;14.10;99.90
30371;DHT22;17164;48.590;11.410;2022-07-03T04:54:31;14.20;99.90
30371;DHT22;17164;48.590;11.410;2022-07-03T04:56:57;14.30;99.90
30371;DHT22;17164;48.590;11.410;2022-07-03T04:59:23;14.30;99.90
30371;DHT22;17164;48.590;11.410;2022-07-03T05:01:48;14.40;99.90
30371;DHT22;17164;48.590;11.410;2022-07-03T05:04:15;14.40;99.90
30371;DHT22;17164;48.590;11.410;2022-07-03T05:06:41;14.50;99.90
30371;DHT22;17164;48.590;11.410;2022-07-03T05:09:07;14.50;99.90
30371;DHT22;17164;48.590;11.410;2022-07-03T05:11:33;14.60;99.90
30371;DHT22;17164;48.590;11.410;2022-07-03T05:13:59;14.70;99.90
30371;DHT22;17164;48.590;11.410;2022-07-03T05:16:25;14.80;99.90
30371;DHT22;17164;48.590;11.410;2022-07-03T05:18:50;14.90;99.90
30371;DHT22;17164;48.590;11.410;2022-07-03T05:21:17;14.90;99.90
30371;DHT22;17164;48.590;11.410;2022-07-03T05:23:42;15.00;99.90
30371;DHT22;17164;48.590;11.410;2022-07-03T05:26:08;15.10;99.90
30371;DHT22;17164;48.590;11.410;2022-07-03T05:28:34;15.10;99.90
30371;DHT22;17164;48.590;11.410;2022-07-03T05:30:59;15.20;99.90
30371;DHT22;17164;48.590;11.410;2022-07-03T05:33:25;15.30;99.90
30371;DHT22;17164;48.590;11.410;2022-07-03T05:35:51;15.40;99.90
30371;DHT22;17164;48.590;11.410;2022-07-03T05:38:16;15.50;99.90
30371;DHT22;17164;48.590;11.410;2022-07-03T05:41:02;15.50;99.90
30371;DHT22;17164;48.590;11.410;2022-07-03T05:43:28;15.60;99.90
30371;DHT22;17164;48.590;11.410;2022-07-03T05:45:53;15.70;99.90
30371;DHT22;17164;48.590;11.410;2022-07-03T05:48:19;15.70;99.90
30371;DHT22;17164;48.590;11.410;2022-07-03T05:50:44;15.80;99.90
30371;DHT22;17164;48.590;11.410;2022-07-03T05:53:10;15.90;99.90
30371;DHT22;17164;48.590;11.410;2022-07-03T05:55:35;16.00;99.90
30371;DHT22;17164;48.590;11.410;2022-07-03T05:58:01;16.00;99.90
30371;DHT22;17164;48.590;11.410;2022-07-03T06:00:26;16.10;99.90
30371;DHT22;17164;48.590;11.410;2022-07-03T06:02:54;16.10;99.90
30371;DHT22;17164;48.590;11.410;2022-07-03T06:05:19;16.20;99.90
30371;DHT22;17164;48.590;11.410;2022-07-03T06:07:45;16.30;99.90
30371;DHT22;17164;48.590;11.410;2022-07-03T06:10:11;16.30;99.90
30371;DHT22;17164;48.590;11.410;2022-07-03T06:12:36;16.40;99.90
30371;DHT22;17164;48.590;11.410;2022-07-03T06:15:02;16.50;99.90
30371;DHT22;17164;48.590;11.410;2022-07-03T06:17:28;16.60;99.90
30371;DHT22;17164;48.590;11.410;2022-07-03T06:19:53;16.60;99.90
30371;DHT22;17164;48.590;11.410;2022-07-03T06:22:19;16.70;99.90
30371;DHT22;17164;48.590;11.410;2022-07-03T06:24:45;16.80;99.90
30371;DHT22;17164;48.590;11.410;2022-07-03T06:27:10;16.90;99.90
30371;DHT22;17164;48.590;11.410;2022-07-03T06:29:36;16.90;99.90
30371;DHT22;17164;48.590;11.410;2022-07-03T06:32:01;17.00;99.90
30371;DHT22;17164;48.590;11.410;2022-07-03T06:34:27;17.10;99.90
30371;DHT22;17164;48.590;11.410;2022-07-03T06:36:53;17.20;99.90
30371;DHT22;17164;48.590;11.410;2022-07-03T06:39:18;17.30;99.90
30371;DHT22;17164;48.590;11.410;2022-07-03T06:41:44;17.50;99.90
30371;DHT22;17164;48.590;11.410;2022-07-03T06:44:09;17.50;99.90
30371;DHT22;17164;48.590;11.410;2022-07-03T06:46:35;17.70;99.90
30371;DHT22;17164;48.590;11.410;2022-07-03T06:49:01;17.80;99.90
30371;DHT22;17164;48.590;11.410;2022-07-03T06:51:26;17.90;99.90
30371;DHT22;17164;48.590;11.410;2022-07-03T06:53:52;18.00;99.90
30371;DHT22;17164;48.590;11.410;2022-07-03T06:56:17;18.10;99.90
30371;DHT22;17164;48.590;11.410;2022-07-03T06:58:43;18.20;99.90
30371;DHT22;17164;48.590;11.410;2022-07-03T07:01:08;18.40;99.90
30371;DHT22;17164;48.590;11.410;2022-07-03T07:03:34;18.50;99.90
30371;DHT22;17164;48.590;11.410;2022-07-03T07:06:00;18.60;99.90
30371;DHT22;17164;48.590;11.410;2022-07-03T07:08:25;18.70;99.90
30371;DHT22;17164;48.590;11.410;2022-07-03T07:10:51;18.80;99.90
30371;DHT22;17164;48.590;11.410;2022-07-03T07:13:17;18.90;99.90
30371;DHT22;17164;48.590;11.410;2022-07-03T07:15:43;19.00;99.90
30371;DHT22;17164;48.590;11.410;2022-07-03T07:18:08;19.10;99.90
30371;DHT22;17164;48.590;11.410;2022-07-03T07:20:34;19.30;99.90
30371;DHT22;17164;48.590;11.410;2022-07-03T07:23:00;19.40;99.90
30371;DHT22;17164;48.590;11.410;2022-07-03T07:25:25;19.50;99.90
30371;DHT22;17164;48.590;11.410;2022-07-03T07:27:51;19.60;99.90
30371;DHT22;17164;48.590;11.410;2022-07-03T07:30:16;19.70;99.90
30371;DHT22;17164;48.590;11.410;2022-07-03T07:32:42;19.80;99.90
30371;DHT22;17164;48.590;11.410;2022-07-03T07:35:08;19.90;99.90
30371;DHT22;17164;48.590;11.410;2022-07-03T07:37:33;19.90;99.90
30371;DHT22;17164;48.590;11.410;2022-07-03T07:39:59;20.00;99.90
30371;DHT22;17164;48.590;11.410;2022-07-03T07:42:25;20.10;99.90
30371;DHT22;17164;48.590;11.410;2022-07-03T07:44:50;20.20;99.90
30371;DHT22;17164;48.590;11.410;2022-07-03T07:47:16;20.30;99.90
30371;DHT22;17164;48.590;11.410;2022-07-03T07:49:42;20.40;99.90
30371;DHT22;17164;48.590;11.410;2022-07-03T07:52:07;20.50;99.90
30371;DHT22;17164;48.590;11.410;2022-07-03T07:54:33;20.60;99.90
30371;DHT22;17164;48.590;11.410;2022-07-03T07:56:58;20.70;99.90
30371;DHT22;17164;48.590;11.410;2022-07-03T07:59:24;20.70;99.90
30371;DHT22;17164;48.590;11.410;2022-07-03T08:01:50;20.80;99.90
30371;DHT22;17164;48.590;11.410;2022-07-03T08:04:34;21.00;99.90
30371;DHT22;17164;48.590;11.410;2022-07-03T08:07:18;21.00;99.90
30371;DHT22;17164;48.590;11.410;2022-07-03T08:09:43;21.10;99.90
30371;DHT22;17164;48.590;11.410;2022-07-03T08:12:09;21.20;99.90
30371;DHT22;17164;48.590;11.410;2022-07-03T08:14:35;21.30;99.90
30371;DHT22;17164;48.590;11.410;2022-07-03T08:17:00;21.40;99.90
30371;DHT22;17164;48.590;11.410;2022-07-03T08:19:26;21.50;99.90
30371;DHT22;17164;48.590;11.410;2022-07-03T08:21:52;21.50;99.90
30371;DHT22;17164;48.590;11.410;2022-07-03T08:24:17;21.60;99.90
30371;DHT22;17164;48.590;11.410;2022-07-03T08:26:43;21.70;99.90
30371;DHT22;17164;48.590;11.410;2022-07-03T08:29:09;21.70;99.90
30371;DHT22;17164;48.590;11.410;2022-07-03T08:31:34;21.80;99.90
30371;DHT22;17164;48.590;11.410;2022-07-03T08:34:00;21.90;99.90
30371;DHT22;17164;48.590;11.410;2022-07-03T08:36:25;22.00;99.90
30371;DHT22;17164;48.590;11.410;2022-07-03T08:38:51;22.20;99.90
30371;DHT22;17164;48.590;11.410;2022-07-03T08:41:19;22.30;99.90
30371;DHT22;17164;48.590;11.410;2022-07-03T08:43:46;22.40;99.90
30371;DHT22;17164;48.590;11.410;2022-07-03T08:46:13;22.40;99.90
30371;DHT22;17164;48.590;11.410;2022-07-03T08:48:40;22.50;99.90
30371;DHT22;17164;48.590;11.410;2022-07-03T08:51:05;22.60;99.90
30371;DHT22;17164;48.590;11.410;2022-07-03T08:53:31;22.70;99.90
30371;DHT22;17164;48.590;11.410;2022-07-03T08:55:57;22.80;99.90
30371;DHT22;17164;48.590;11.410;2022-07-03T08:58:23;22.80;99.90
30371;DHT22;17164;48.590;11.410;2022-07-03T09:00:49;22.90;99.90
30371;DHT22;17164;48.590;11.410;2022-07-03T09:03:15;23.00;99.90
30371;DHT22;17164;48.590;11.410;2022-07-03T09:05:40;23.10;99.90
30371;DHT22;17164;48.590;11.410;2022-07-03T09:08:08;23.20;99.90
30371;DHT22;17164;48.590;11.410;2022-07-03T09:10:34;23.40;99.90
30371;DHT22;17164;48.590;11.410;2022-07-03T09:13:00;23.40;99.90
30371;DHT22;17164;48.590;11.410;2022-07-03T09:15:26;23.50;99.90
30371;DHT22;17164;48.590;11.410;2022-07-03T09:18:07;23.60;99.90
30371;DHT22;17164;48.590;11.410;2022-07-03T09:20:37;23.70;99.90
30371;DHT22;17164;48.590;11.410;2022-07-03T09:23:17;23.70;99.90
30371;DHT22;17164;48.590;11.410;2022-07-03T09:26:00;23.80;99.90
30371;DHT22;17164;48.590;11.410;2022-07-03T09:28:49;23.80;99.90
30371;DHT22;17164;48.590;11.410;2022-07-03T09:31:20;23.90;99.90
30371;DHT22;17164;48.590;11.410;2022-07-03T09:34:05;24.00;99.90
30371;DHT22;17164;48.590;11.410;2022-07-03T09:39:22;24.20;99.90
30371;DHT22;17164;48.590;11.410;2022-07-03T09:47:17;24.60;99.90
30371;DHT22;17164;48.590;11.410;2022-07-03T09:49:55;24.60;99.30
30371;DHT22;17164;48.590;11.410;2022-07-03T09:52:27;24.70;99.90
30371;DHT22;17164;48.590;11.410;2022-07-03T09:57:41;24.80;98.30
30371;DHT22;17164;48.590;11.410;2022-07-03T10:07:58;25.00;98.20
30371;DHT22;17164;48.590;11.410;2022-07-03T10:10:27;25.10;97.80
30371;DHT22;17164;48.590;11.410;2022-07-03T10:12:54;25.10;97.30
30371;DHT22;17164;48.590;11.410;2022-07-03T10:15:21;25.30;95.80
30371;DHT22;17164;48.590;11.410;2022-07-03T10:17:48;25.30;97.30
30371;DHT22;17164;48.590;11.410;2022-07-03T10:20:17;25.40;97.00
30371;DHT22;17164;48.590;11.410;2022-07-03T10:22:45;25.50;95.20
30371;DHT22;17164;48.590;11.410;2022-07-03T10:25:13;25.50;93.70
30371;DHT22;17164;48.590;11.410;2022-07-03T10:27:40;25.60;92.70
30371;DHT22;17164;48.590;11.410;2022-07-03T10:30:07;25.70;91.60
30371;DHT22;17164;48.590;11.410;2022-07-03T10:32:34;25.80;91.50
30371;DHT22;17164;48.590;11.410;2022-07-03T10:35:02;25.90;87.30
30371;DHT22;17164;48.590;11.410;2022-07-03T10:37:33;25.90;81.10
30371;DHT22;17164;48.590;11.410;2022-07-03T10:40:10;25.90;83.90
30371;DHT22;17164;48.590;11.410;2022-07-03T10:43:03;25.90;85.20
30371;DHT22;17164;48.590;11.410;2022-07-03T10:46:17;25.90;82.00
30371;DHT22;17164;48.590;11.410;2022-07-03T10:51:30;25.90;79.20
30371;DHT22;17164;48.590;11.410;2022-07-03T11:20:34;26.60;72.80
30371;DHT22;17164;48.590;11.410;2022-07-03T11:23:13;26.60;75.80
30371;DHT22;17164;48.590;11.410;2022-07-03T11:25:43;26.70;73.00
30371;DHT22;17164;48.590;11.410;2022-07-03T11:41:45;27.00;76.20
30371;DHT22;17164;48.590;11.410;2022-07-03T11:44:19;27.10;72.80
30371;DHT22;17164;48.590;11.410;2022-07-03T11:46:50;27.10;68.80
30371;DHT22;17164;48.590;11.410;2022-07-03T11:49:21;27.10;70.90
30371;DHT22;17164;48.590;11.410;2022-07-03T11:51:58;27.20;71.20
30371;DHT22;17164;48.590;11.410;2022-07-03T11:54:25;27.30;68.50
30371;DHT22;17164;48.590;11.410;2022-07-03T11:56:51;27.40;68.50
30371;DHT22;17164;48.590;11.410;2022-07-03T11:59:17;27.40;68.00
30371;DHT22;17164;48.590;11.410;2022-07-03T12:01:43;27.40;65.60
30371;DHT22;17164;48.590;11.410;2022-07-03T12:04:20;27.50;64.10
30371;DHT22;17164;48.590;11.410;2022-07-03T12:06:56;27.50;66.30
30371;DHT22;17164;48.590;11.410;2022-07-03T12:09:31;27.60;63.70
30371;DHT22;17164;48.590;11.410;2022-07-03T12:12:05;27.60;60.90
30371;DHT22;17164;48.590;11.410;2022-07-03T12:14:44;27.70;62.40
30371;DHT22;17164;48.590;11.410;2022-07-03T12:17:18;27.70;60.20
30371;DHT22;17164;48.590;11.410;2022-07-03T12:22:11;28.00;58.20
30371;DHT22;17164;48.590;11.410;2022-07-03T12:24:36;28.00;60.10
30371;DHT22;17164;48.590;11.410;2022-07-03T12:27:03;28.00;60.70
30371;DHT22;17164;48.590;11.410;2022-07-03T12:29:30;28.10;58.60
30371;DHT22;17164;48.590;11.410;2022-07-03T12:31:56;28.00;56.70
30371;DHT22;17164;48.590;11.410;2022-07-03T12:34:22;28.00;58.70
30371;DHT22;17164;48.590;11.410;2022-07-03T12:36:58;27.90;57.20
30371;DHT22;17164;48.590;11.410;2022-07-03T12:39:47;28.00;58.70
30371;DHT22;17164;48.590;11.410;2022-07-03T12:42:22;28.00;57.80
30371;DHT22;17164;48.590;11.410;2022-07-03T12:44:58;28.10;59.60
30371;DHT22;17164;48.590;11.410;2022-07-03T12:47:25;28.20;57.10
30371;DHT22;17164;48.590;11.410;2022-07-03T12:50:01;28.30;56.00
30371;DHT22;17164;48.590;11.410;2022-07-03T12:52:31;28.30;58.30
30371;DHT22;17164;48.590;11.410;2022-07-03T12:54:57;28.40;59.60
30371;DHT22;17164;48.590;11.410;2022-07-03T12:57:25;28.40;59.20
30371;DHT22;17164;48.590;11.410;2022-07-03T13:00:14;28.40;54.80
30371;DHT22;17164;48.590;11.410;2022-07-03T13:02:47;28.50;54.10
30371;DHT22;17164;48.590;11.410;2022-07-03T13:05:19;28.60;55.10
30371;DHT22;17164;48.590;11.410;2022-07-03T13:07:47;28.60;54.40
30371;DHT22;17164;48.590;11.410;2022-07-03T13:10:18;28.70;53.70
30371;DHT22;17164;48.590;11.410;2022-07-03T13:12:54;28.70;53.60
30371;DHT22;17164;48.590;11.410;2022-07-03T13:15:20;28.70;51.90
30371;DHT22;17164;48.590;11.410;2022-07-03T13:20:24;28.70;55.90
30371;DHT22;17164;48.590;11.410;2022-07-03T13:22:50;28.70;54.90
30371;DHT22;17164;48.590;11.410;2022-07-03T13:25:17;28.80;52.50
30371;DHT22;17164;48.590;11.410;2022-07-03T13:27:43;28.90;53.40
30371;DHT22;17164;48.590;11.410;2022-07-03T13:30:12;28.80;53.90
30371;DHT22;17164;48.590;11.410;2022-07-03T13:32:38;28.90;51.90
30371;DHT22;17164;48.590;11.410;2022-07-03T13:35:05;28.90;54.50
30371;DHT22;17164;48.590;11.410;2022-07-03T13:37:31;28.90;54.00
30371;DHT22;17164;48.590;11.410;2022-07-03T13:39:56;28.90;52.70
30371;DHT22;17164;48.590;11.410;2022-07-03T13:42:22;29.00;52.60
30371;DHT22;17164;48.590;11.410;2022-07-03T13:44:47;29.00;52.60
30371;DHT22;17164;48.590;11.410;2022-07-03T13:47:15;29.00;52.10
30371;DHT22;17164;48.590;11.410;2022-07-03T13:49:41;29.10;51.30
30371;DHT22;17164;48.590;11.410;2022-07-03T13:52:07;29.30;52.20
30371;DHT22;17164;48.590;11.410;2022-07-03T13:54:33;29.30;51.70
30371;DHT22;17164;48.590;11.410;2022-07-03T13:56:59;29.30;51.40
30371;DHT22;17164;48.590;11.410;2022-07-03T13:59:25;29.20;52.40
30371;DHT22;17164;48.590;11.410;2022-07-03T14:01:51;29.20;51.90
30371;DHT22;17164;48.590;11.410;2022-07-03T14:04:16;29.10;51.60
30371;DHT22;17164;48.590;11.410;2022-07-03T14:06:42;29.20;52.50
30371;DHT22;17164;48.590;11.410;2022-07-03T14:09:08;29.20;51.50
30371;DHT22;17164;48.590;11.410;2022-07-03T14:11:33;29.30;51.00
30371;DHT22;17164;48.590;11.410;2022-07-03T14:13:59;29.30;51.00
30371;DHT22;17164;48.590;11.410;2022-07-03T14:16:24;29.30;51.50
30371;DHT22;17164;48.590;11.410;2022-07-03T14:18:50;29.30;50.70
30371;DHT22;17164;48.590;11.410;2022-07-03T14:21:16;29.30;51.50
30371;DHT22;17164;48.590;11.410;2022-07-03T14:23:41;29.40;50.90
30371;DHT22;17164;48.590;11.410;2022-07-03T14:26:07;29.60;51.90
30371;DHT22;17164;48.590;11.410;2022-07-03T14:28:33;29.60;51.30
30371;DHT22;17164;48.590;11.410;2022-07-03T14:31:17;29.60;49.30
30371;DHT22;17164;48.590;11.410;2022-07-03T14:34:02;29.60;50.50
30371;DHT22;17164;48.590;11.410;2022-07-03T14:36:28;29.60;50.30
30371;DHT22;17164;48.590;11.410;2022-07-03T14:38:54;29.60;48.90
30371;DHT22;17164;48.590;11.410;2022-07-03T14:41:19;29.80;49.10
30371;DHT22;17164;48.590;11.410;2022-07-03T14:43:45;30.00;49.40
30371;DHT22;17164;48.590;11.410;2022-07-03T14:46:11;30.00;50.70
30371;DHT22;17164;48.590;11.410;2022-07-03T14:48:36;30.00;51.60
30371;DHT22;17164;48.590;11.410;2022-07-03T14:51:02;30.10;51.10
30371;DHT22;17164;48.590;11.410;2022-07-03T14:53:27;30.10;52.30
30371;DHT22;17164;48.590;11.410;2022-07-03T14:55:53;30.10;52.60
30371;DHT22;17164;48.590;11.410;2022-07-03T14:58:21;30.10;53.30
30371;DHT22;17164;48.590;11.410;2022-07-03T15:00:53;30.10;53.90
30371;DHT22;17164;48.590;11.410;2022-07-03T15:05:58;30.10;49.60
30371;DHT22;17164;48.590;11.410;2022-07-03T15:10:54;30.20;51.20
30371;DHT22;17164;48.590;11.410;2022-07-03T15:13:20;30.30;52.10
30371;DHT22;17164;48.590;11.410;2022-07-03T15:15:47;30.30;49.70
30371;DHT22;17164;48.590;11.410;2022-07-03T15:18:17;30.30;49.80
30371;DHT22;17164;48.590;11.410;2022-07-03T15:20:43;30.30;50.20
30371;DHT22;17164;48.590;11.410;2022-07-03T15:23:09;30.40;53.90
30371;DHT22;17164;48.590;11.410;2022-07-03T15:25:39;30.40;53.30
30371;DHT22;17164;48.590;11.410;2022-07-03T15:28:09;30.50;53.10
30371;DHT22;17164;48.590;11.410;2022-07-03T15:30:35;30.50;53.60
30371;DHT22;17164;48.590;11.410;2022-07-03T15:33:01;30.50;51.70
30371;DHT22;17164;48.590;11.410;2022-07-03T15:35:28;30.50;53.20
30371;DHT22;17164;48.590;11.410;2022-07-03T15:38:13;30.60;54.20
30371;DHT22;17164;48.590;11.410;2022-07-03T15:40:46;30.70;54.00
30371;DHT22;17164;48.590;11.410;2022-07-03T15:53:39;30.90;52.40
30371;DHT22;17164;48.590;11.410;2022-07-03T15:56:07;30.90;53.40
30371;DHT22;17164;48.590;11.410;2022-07-03T15:58:34;30.90;54.00
30371;DHT22;17164;48.590;11.410;2022-07-03T16:01:05;30.90;54.20
30371;DHT22;17164;48.590;11.410;2022-07-03T16:04:03;31.00;54.60
30371;DHT22;17164;48.590;11.410;2022-07-03T16:06:30;31.00;53.10
30371;DHT22;17164;48.590;11.410;2022-07-03T16:08:56;31.10;51.80
30371;DHT22;17164;48.590;11.410;2022-07-03T16:11:22;31.00;52.70
30371;DHT22;17164;48.590;11.410;2022-07-03T16:13:49;31.10;52.10
30371;DHT22;17164;48.590;11.410;2022-07-03T16:16:20;31.10;49.50
30371;DHT22;17164;48.590;11.410;2022-07-03T16:18:46;31.10;51.10
30371;DHT22;17164;48.590;11.410;2022-07-03T16:21:13;31.20;50.80
30371;DHT22;17164;48.590;11.410;2022-07-03T16:23:43;31.20;50.50
30371;DHT22;17164;48.590;11.410;2022-07-03T16:26:09;31.10;50.80
30371;DHT22;17164;48.590;11.410;2022-07-03T16:28:35;31.10;51.40
30371;DHT22;17164;48.590;11.410;2022-07-03T16:31:04;30.90;50.80
30371;DHT22;17164;48.590;11.410;2022-07-03T16:33:33;30.90;51.30
30371;DHT22;17164;48.590;11.410;2022-07-03T16:36:21;30.80;51.40
30371;DHT22;17164;48.590;11.410;2022-07-03T16:38:56;30.70;51.80
30371;DHT22;17164;48.590;11.410;2022-07-03T16:41:25;30.50;53.20
30371;DHT22;17164;48.590;11.410;2022-07-03T16:43:56;30.40;53.20
30371;DHT22;17164;48.590;11.410;2022-07-03T16:46:24;30.40;52.40
30371;DHT22;17164;48.590;11.410;2022-07-03T16:48:53;30.20;52.80
30371;DHT22;17164;48.590;11.410;2022-07-03T16:51:23;30.10;52.20
30371;DHT22;17164;48.590;11.410;2022-07-03T16:53:49;30.00;52.00
30371;DHT22;17164;48.590;11.410;2022-07-03T16:56:16;30.00;51.60
30371;DHT22;17164;48.590;11.410;2022-07-03T16:58:43;29.80;52.60
30371;DHT22;17164;48.590;11.410;2022-07-03T17:01:10;29.80;52.30
30371;DHT22;17164;48.590;11.410;2022-07-03T17:03:37;29.70;53.20
30371;DHT22;17164;48.590;11.410;2022-07-03T17:06:04;29.70;54.20
30371;DHT22;17164;48.590;11.410;2022-07-03T17:08:30;29.60;54.90
30371;DHT22;17164;48.590;11.410;2022-07-03T17:10:57;29.50;53.10
30371;DHT22;17164;48.590;11.410;2022-07-03T17:13:23;29.50;54.60